Irving, TX (75061)

1:48 AM CDT on September 04, 2015 (GMT -0500)
Toler Lane, Irving, Texas USA | | Change Station
CLOSE
Current Station
Personal Weather Station
Location: Irving, TX
Elevation: 551 ft
Nearby Weather Stations

Elev 551 ft 32.84 °N, 96.96 °W | Updated 2 seconds ago

Clear
Clear
83.1 °F
Feels Like 88 °F
N
1.2
Wind Variable Wind from SSE
Gusts 0.0 mph

Today
High -- | Low -- °F
--% Chance of Precip.
Yesterday
High -- | Low -- °F
Precip. -- in
7:04 AM 7:48 PM
Waning Gibbous, 62% visible
Pressure 29.86 in
Visibility 10.0 miles
Clouds Few 30000 ft
Heat Index 88 °F
Dew Point 71 °F
Humidity 68%
Rainfall 0.00 in
Snow Depth Not available.
UV 0 out of 12
Pollen 9.80 out of 12
Air Quality Not available.
Flu Activity Not available.
METAR KDAL 040553Z 12010KT 10SM FEW300 29/20 A2989 RMK AO2 SLP112 T02890200 10328 20289 403560244 57002
Pressure 29.86 in
Visibility 10.0 miles
Clouds Few 30000 ft
Heat Index 88 °F
Dew Point 71 °F
Humidity 68%
Rainfall 0.00 in
Snow Depth Not available.
UV 0 out of 12
Pollen 9.80 out of 12
Air Quality Not available.
Flu Activity Not available.
METAR KDAL 040553Z 12010KT 10SM FEW300 29/20 A2989 RMK AO2 SLP112 T02890200 10328 20289 403560244 57002

10-Day Weather Forecast

×

Almanac

Astronomy

Sep. 04, 2015 Rise Set
Actual Time
Civil Twilight
Nautical Twilight
Astronomical Twilight
Moon
Length of Visible Light
Length of Day
Tomorrow will be .
, % of the Moon is Illuminated

Today's Extremes

State Highs State Lows

Community

WunderPhotos

Upload Photos

1,852,132 photos uploaded!

WunderBlogs® & News

Nearby

Air Quality

  Air Quality AQ Index Pollutant
Not available.

Snow Depth

Station Depth Elevation

Earthquake Activity

City Distance Mag. Time & Date
Minimum magnitude displayed is 2.5.

Coastal Water Temperatures

Place Temperature

Stations

Nearby Weather Stations

Station Location Temp. Windchill Dew Point Humidity Wind Precip. Elev Updated Type